Bewolking Meer informatie Parkstad Weather Satellite


Neerslagradar Meer informatie Parkstad Rain Snow Radar


Onweersbuien Meer informatie Parkstad Lighntning


24/7 Weercamera Meer informatie Parkstad Weathercam


Natuurbrandrisico
CBI






Het weer levert geen direct gevaar op in Parkstad.    Er zijn geen waarschuwingen afgegeven voor Parkstad (045)

METAR rapporten vliegvelden

   
EHBK - Beek Nederland
Gewijzigd: 28-01-2020 05:55
Grotendeels bewolkt  
Grotendeels bewolkt  
   Wind: ZW 33.3 km/h
Wind: ZW 33.3 km/h
Temperatuur: 7°C
Voelt als: 2°C
Dauwpunt: 4°C
Vochtigheid: 81%
Barometer: 992 hPa
Satelliet beelden: Grotendeels bewolkt
Zicht: meer dan 10 km
Bewolking: Licht bewolkt 732 m,
Grotendeels bewolkt 853 m
EHBK 280455Z AUTO 22018KT 9999 FEW024 BKN028 07/04 Q0992 TEMPO 6000 SHRA SCT020CB
EHBK - Maastricht Nederland
Gewijzigd: 28-01-2020 05:55
Grotendeels bewolkt  
Grotendeels bewolkt  
   Wind: ZW 33.3 km/h
Wind: ZW 33.3 km/h
Temperatuur: 7°C
Voelt als: 2°C
Dauwpunt: 4°C
Vochtigheid: 81%
Barometer: 992 hPa
Satelliet beelden: Grotendeels bewolkt
Zicht: meer dan 10 km
Bewolking: Licht bewolkt 732 m,
Grotendeels bewolkt 853 m
EHBK 280455Z AUTO 22018KT 9999 FEW024 BKN028 07/04 Q0992 TEMPO 6000 SHRA SCT020CB
EBLG - Liège België
Gewijzigd: 28-01-2020 05:50
Kleine regenbuien, Neerslag, Grotendeels bewolkt  
Kleine regenbuien, Neerslag, Grotendeels bewolkt  
   Wind: ZZW 25.9 km/h
Wind: ZZW 25.9 km/h
Temperatuur: 6°C
Voelt als: 2°C
Dauwpunt: 4°C
Vochtigheid: 87%
Barometer: 992 hPa
Satelliet beelden: Grotendeels bewolkt
Zicht: meer dan 10 km
Bewolking: Licht bewolkt 396 m,
Gedeeltelijk bewolkt 610 m,
Grotendeels bewolkt 1341 m
EBLG 280450Z 21014KT 9999 -SHRA FEW013 SCT020 BKN044 06/04 Q0992 TEMPO 22020G35KT 4000 SHRA BKN012
EDDK - Köln/Bonn Duitsland
Gewijzigd: 28-01-2020 05:50
Grotendeels bewolkt  
Grotendeels bewolkt  
   Wind: ZZO 16.7 km/h
Wind: ZZO 16.7 km/h
Temperatuur: 5°C
Voelt als: 2°C
Dauwpunt: 4°C
Vochtigheid: 93%
Barometer: 994 hPa
Satelliet beelden: Grotendeels bewolkt
Zicht: meer dan 10 km
Bewolking: Grotendeels bewolkt 1219 m
EDDK 280450Z 15009KT 9999 BKN040 05/04 Q0994 TEMPO 23015G25KT
EDDL - Düsseldorf Duitsland
Gewijzigd: 28-01-2020 05:50
Grotendeels bewolkt  
Grotendeels bewolkt  
   Wind: ZZO 18.5 km/h
Wind: ZZO 18.5 km/h
Temperatuur: 6°C
Voelt als: 3°C
Dauwpunt: 5°C
Vochtigheid: 93%
Barometer: 992 hPa
Satelliet beelden: Grotendeels bewolkt
Zicht: meer dan 10 km
Bewolking: Licht bewolkt 549 m,
Grotendeels bewolkt 793 m
EDDL 280450Z 16010KT 9999 FEW018 BKN026 06/05 Q0992 TEMPO 23015G25KT
EHEH - Eindhoven Nederland
Gewijzigd: 28-01-2020 06:16
Grotendeels bewolkt  
Grotendeels bewolkt  
   Wind: Zuiden 18.5 km/h
Wind: Zuiden 18.5 km/h
Temperatuur: 6°C
Voelt als: 3°C
Dauwpunt: 4°C
Vochtigheid: 87%
Barometer: 990 hPa
Satelliet beelden: Grotendeels bewolkt
Zicht: meer dan 10 km
Bewolking: Licht bewolkt 579 m,
Gedeeltelijk bewolkt 975 m,
Grotendeels bewolkt 1311 m
EHEH 280516Z AUTO 19010KT 160V220 9999 FEW019 SCT032 BKN043 06/04 Q0990 BLU
ELLX - Luxemburg Luxemburg
Gewijzigd: 28-01-2020 05:50
Kleine regenbuien, Neerslag, Grotendeels bewolkt  
Kleine regenbuien, Neerslag, Grotendeels bewolkt  
   Wind: ZW 35.2 km/h<br />Gust to 35.2 km/h
Wind: ZW 35.2 km/h
Gust to 35.2 km/h
Temperatuur: 5°C
Voelt als: -1°C
Dauwpunt: 4°C
Vochtigheid: 93%
Barometer: 996 hPa
Satelliet beelden: Grotendeels bewolkt
Zicht: 4 km
Bewolking: Licht bewolkt 213 m,
Grotendeels bewolkt 305 m
ELLX 280450Z 22019G31KT 200V260 4000 -SHRA FEW007 BKN010 05/04 Q0996 TEMPO 22023G35KT 6000
EGLL - London England
Gewijzigd: 28-01-2020 05:50
Helder  
Helder  
   Wind: Westen 27.8 km/h
Wind: Westen 27.8 km/h
Temperatuur: 3°C
Voelt als: -2°C
Dauwpunt: 2°C
Vochtigheid: 93%
Barometer: 991 hPa
Satelliet beelden: Helder
Zicht: meer dan 10 km
Bewolking: Helder
EGLL 280450Z AUTO 26015KT 9999 NCD 03/02 Q0991 NOSIG
EBAW - Antwerpen België
Gewijzigd: 28-01-2020 05:50
Kleine regenbuien, Neerslag, Grotendeels bewolkt  
Kleine regenbuien, Neerslag, Grotendeels bewolkt  
   Wind: ZZW 25.9 km/h
Wind: ZZW 25.9 km/h
Temperatuur: 7°C
Voelt als: 3°C
Dauwpunt: 4°C
Vochtigheid: 81%
Barometer: 990 hPa
Satelliet beelden: Grotendeels bewolkt
Zicht: meer dan 10 km
Bewolking: Licht bewolkt 518 m,
Gedeeltelijk bewolkt 1158 m,
Grotendeels bewolkt 1341 m
EBAW 280450Z AUTO 21014KT 9999 -SHRA FEW017/// SCT038/// BKN044/// 07/04 Q0990
EBOS - Oostende België
Gewijzigd: 28-01-2020 05:50
Kleine regenbuien, Neerslag, Grotendeels bewolkt  
Kleine regenbuien, Neerslag, Grotendeels bewolkt  
   Wind: ZW 24.1 km/h
Wind: ZW 24.1 km/h
Temperatuur: 4°C
Voelt als: -1°C
Dauwpunt: 2°C
Vochtigheid: 87%
Barometer: 990 hPa
Satelliet beelden: Grotendeels bewolkt
Zicht: meer dan 10 km
Bewolking: Licht bewolkt 274 m,
Gedeeltelijk bewolkt 396 m,
Grotendeels bewolkt 518 m
EBOS 280450Z 23013KT 9999 -SHRA FEW009 SCT013 BKN017 04/02 Q0990 TEMPO 25020G30KT 4000 SHRA
LEAL - La Nucia Spanje
Gewijzigd: 28-01-2020 06:00
Helder  
Helder  
   Wind: Westen 13 km/h
Wind: Westen 13 km/h
Temperatuur: 8°C
Voelt als: 6°C
Dauwpunt: 5°C
Vochtigheid: 82%
Barometer: 1022 hPa
Zicht: meer dan 10 km
Bewolking: Helder
LEAL 280500Z 26007KT 200V280 CAVOK 08/05 Q1022 NOSIG
TNCA - Oranjestad Aruba
Gewijzigd: 28-01-2020 05:00
Verouderd
Gedeeltelijk bewolkt  
Gedeeltelijk bewolkt  
   Wind: Oosten 14.8 km/h
Wind: Oosten 14.8 km/h
Temperatuur: 26°C
Dauwpunt: 23°C
Vochtigheid: 84%
Barometer: 1014 hPa
Satelliet beelden: Gedeeltelijk bewolkt
Zicht: meer dan 10 km
Bewolking: Gedeeltelijk bewolkt 518 m
TNCA 280400Z 09008KT 9999 SCT017 26/23 Q1014 NOSIG
TNCC - Willemstad Curacao
Gewijzigd: 28-01-2020 06:00
Licht bewolkt  
Licht bewolkt  
   Wind: ZO 7.4 km/h
Wind: ZO 7.4 km/h
Temperatuur: 25°C
Dauwpunt: 22°C
Vochtigheid: 83%
Barometer: 1014 hPa
Satelliet beelden: Licht bewolkt
Zicht: meer dan 10 km
Bewolking: Licht bewolkt 518 m
TNCC 280500Z 13004KT 9999 FEW017 25/22 Q1014 NOSIG
MTPP - Port au Prince Haitië
Gewijzigd: 28-01-2020 05:59
  
  
   Wind: Windstil
Wind: Windstil
Temperatuur: 25°C
Dauwpunt: 20°C
Vochtigheid: 74%
Barometer: 1015 hPa
Zicht: 8 km
MTPP 280459Z AUTO 00000KT 8000 ////// 25/20 Q1015 A2998 NOSIG
ENVA - Trondheim Noorwegen
Gewijzigd: 28-01-2020 06:20
Helder  
Helder  
   Wind: ONO 7.4 km/h
Wind: ONO 7.4 km/h
Temperatuur: 4°C
Voelt als: 2°C
Dauwpunt: -2°C
Vochtigheid: 65%
Barometer: 990 hPa
Zicht: meer dan 10 km
Bewolking: Helder
ENVA 280520Z 07004KT CAVOK 04/M02 Q0990 RMK WIND 670FT 16010KT
ENBO - Bodø Noorwegen
Gewijzigd: 28-01-2020 06:20
Gedeeltelijk bewolkt  
Gedeeltelijk bewolkt  
   Wind: Oosten 57.4 km/h
Wind: Oosten 57.4 km/h
Temperatuur: -3°C
Voelt als: -13°C
Dauwpunt: -8°C
Vochtigheid: 69%
Barometer: 992 hPa
Satelliet beelden: Gedeeltelijk bewolkt
Zicht: meer dan 10 km
Bewolking: Gedeeltelijk bewolkt 1829 m
ENBO 280520Z 09031KT 9999 SCT060 M03/M08 Q0992
ETNG - Geilenkirchen Duitsland
Gewijzigd: 28-01-2020 05:50
Grotendeels bewolkt  
Grotendeels bewolkt  
   Wind: ZW 20.4 km/h<br />Gust to 20.4 km/h
Wind: ZW 20.4 km/h
Gust to 20.4 km/h
Temperatuur: 7°C
Voelt als: 3°C
Dauwpunt: 4°C
Vochtigheid: 81%
Barometer: 992 hPa
Satelliet beelden: Grotendeels bewolkt
Zicht: meer dan 10 km
Bewolking: Licht bewolkt 914 m,
Gedeeltelijk bewolkt 3048 m,
Grotendeels bewolkt 5486 m
ETNG 280450Z 22011G22KT 9999 FEW030 SCT100 BKN180 07/04 Q0992
 

Script ontwikkeld door  Saratoga-weather.org Aangepast voor de template door  Weerstation Leuven

U vindt ons ook hier:

Het Weer Aktueel

WOW Nederland KNMI

Vereniging voor Weerkunde en Klimatologie

UK Met Office Weather Observation Website (WOW)

WeatherCloud

Weather Underground

Awekas

Weatherlink IP

HAMweather, WeatherForYou, PWS Weather

Citizen Weather Observer Program (CWOP)

Apparatuur in gebruik:

Hardwareleverancier
Weerhuisje

Weerstation
Vantage Pro2+ UV

Weercomputer's
alix3d2 & wl330n

Weerprogramma's
Smartbedded

Satelliet NOAA's
WRX137 & KX137

Satelliet Eumetsat
Ayecka SR1 & Triax

Bliksemdetectie
Boltek StormTracker

Webleverancier
F-Service

Weerhuisje

Vantage Pro2+ UV

alix3d2 & wl330n

Smartbedded

WRX137 & KX137

Ayecka SR1 & Triax

Boltek StormTracker

F-Service